Time;durP1;ratioP1;P1;durP2;ratioP2;P2;SDS_P1;SDS_P2;PMS_P1;PMS_P2;Temp;Humidity;BMP_temperature;BMP_pressure;BME280_temperature;BME280_humidity;BME280_pressure;Samples;Min_cycle;Max_cycle;Signal;HPM_P1;HPM_P2
2021/01/07 02:25:04;;;;;;;215.00;92.78;;;;;;;30.44;59.28;101087.19;5104726;27;44489;-45
2021/01/07 02:27:39;;;;;;;220.50;97.40;;;;;;;30.55;58.66;101094.66;5101843;27;70281;-45
2021/01/07 02:30:11;;;;;;;145.88;64.93;;;;;;;30.64;58.20;101093.38;5104286;27;66038;-43
2021/01/07 02:32:42;;;;;;;178.43;80.10;;;;;;;30.72;58.69;101092.31;5101784;27;70505;-45
2021/01/07 02:35:14;;;;;;;178.55;81.05;;;;;;;30.84;57.86;101092.47;5103200;27;66148;-42
2021/01/07 02:37:48;;;;;;;147.52;70.15;;;;;;;30.91;57.51;101087.88;5103161;27;70206;-41
2021/01/07 02:40:21;;;;;;;166.13;74.40;;;;;;;31.04;57.85;101087.81;5104129;27;66665;-42
2021/01/07 02:42:51;;;;;;;189.05;79.85;;;;;;;31.10;56.97;101086.13;5102534;27;70665;-40
2021/01/07 02:45:25;;;;;;;111.85;54.85;;;;;;;31.19;56.46;101084.81;5102407;27;65577;-41
2021/01/07 02:48:00;;;;;;;177.45;77.07;;;;;;;31.22;57.23;101072.72;5102845;27;69883;-38
2021/01/07 02:50:30;;;;;;;220.30;88.57;;;;;;;31.35;57.33;101078.03;5102599;27;66221;-39
2021/01/07 02:53:01;;;;;;;197.93;84.30;;;;;;;31.32;57.10;101056.81;5102251;27;70390;-40
2021/01/07 02:55:32;;;;;;;178.98;75.43;;;;;;;31.49;56.91;101076.94;5102414;27;65437;-41
2021/01/07 02:58:06;;;;;;;195.52;58.20;;;;;;;32.49;54.19;101090.47;5100084;27;70524;-59
2021/01/07 03:00:56;;;;;;;71.47;40.97;;;;;;;32.11;55.07;101084.38;5103139;27;66376;-74
2021/01/07 03:03:39;;;;;;;49.75;31.02;;;;;;;34.00;49.00;101090.41;5101954;27;69900;-56
2021/01/07 03:06:15;;;;;;;61.17;39.17;;;;;;;35.82;46.76;101084.47;5101947;27;66994;-57
2021/01/07 03:08:49;;;;;;;67.45;34.60;;;;;;;37.53;43.04;101084.41;5101130;27;70728;-50
2021/01/07 03:11:20;;;;;;;120.43;58.35;;;;;;;38.87;39.01;101090.41;5102479;27;66356;-58
2021/01/07 03:13:59;;;;;;;52.03;36.80;;;;;;;40.18;36.08;101075.31;5101956;27;69279;-56
2021/01/07 03:16:29;;;;;;;53.78;38.42;;;;;;;35.57;46.36;101052.97;5100105;27;66889;-58
2021/01/07 03:19:00;;;;;;;78.78;46.75;;;;;;;35.13;47.18;101055.50;5100462;27;69923;-61
2021/01/07 03:21:34;;;;;;;72.73;50.13;;;;;;;34.87;47.48;101050.59;5104358;27;66601;-77
2021/01/07 03:24:07;;;;;;;79.78;48.72;;;;;;;34.61;48.24;101052.84;5080183;28;70469;-74
2021/01/07 03:26:38;;;;;;;78.18;46.42;;;;;;;34.87;46.90;101039.69;5089672;28;65894;-76
2021/01/07 03:29:17;;;;;;;76.55;46.97;;;;;;;34.94;46.53;101029.50;5087016;27;69454;-78
2021/01/07 03:31:54;;;;;;;71.88;43.30;;;;;;;35.10;46.36;101050.53;5071138;28;64549;-79
2021/01/07 03:34:25;;;;;;;68.60;45.53;;;;;;;35.25;45.93;101051.88;5087968;28;69839;-77
2021/01/07 03:37:03;;;;;;;72.90;45.25;;;;;;;35.42;45.37;101047.25;5084089;28;64368;-80
2021/01/07 03:39:41;;;;;;;84.38;46.78;;;;;;;35.54;45.07;101045.25;5079733;28;68666;-85
2021/01/07 03:42:17;;;;;;;76.80;42.38;;;;;;;35.50;44.35;101041.38;5080437;27;65037;-79
2021/01/07 03:44:51;;;;;;;73.43;46.55;;;;;;;35.46;44.86;101004.75;5059072;28;69857;-80
2021/01/07 03:47:24;;;;;;;74.13;45.00;;;;;;;35.69;43.90;101030.22;5065314;28;65690;-82
2021/01/07 03:49:54;;;;;;;69.55;44.00;;;;;;;35.59;44.58;101028.19;5043505;28;69555;-82
2021/01/07 03:52:26;;;;;;;66.55;42.25;;;;;;;35.75;44.04;101023.78;5062343;28;64436;-85
2021/01/07 03:54:57;;;;;;;60.53;37.83;;;;;;;35.86;43.56;101020.13;5076626;28;69957;-72
2021/01/07 03:57:28;;;;;;;66.55;41.13;;;;;;;35.79;43.75;101016.72;5087065;27;66879;-62
2021/01/07 04:00:01;;;;;;;81.82;41.00;;;;;;;34.55;46.85;101010.19;5084936;28;70587;-72
2021/01/07 04:02:32;;;;;;;70.43;39.40;;;;;;;34.24;45.65;101019.63;5105441;27;65624;-75
2021/01/07 04:05:06;;;;;;;64.18;36.55;;;;;;;33.75;46.24;101021.78;5070650;28;69323;-63
2021/01/07 04:08:06;;;;;;;61.33;38.95;;;;;;;33.36;46.19;101030.34;5084450;28;66009;-73
2021/01/07 04:10:37;;;;;;;63.58;37.20;;;;;;;32.49;47.21;100921.28;5087495;27;70038;-71
2021/01/07 04:13:07;;;;;;;64.20;36.40;;;;;;;32.87;48.32;101005.13;5095469;27;66284;-62
2021/01/07 04:15:40;;;;;;;58.65;33.20;;;;;;;32.29;48.49;100970.38;5088798;27;69084;-73
2021/01/07 04:18:14;;;;;;;51.28;32.53;;;;;;;32.01;49.10;100928.34;5088258;27;66316;-57
2021/01/07 04:20:58;;;;;;;51.03;32.28;;;;;;;34.68;44.42;100955.41;5086690;27;70515;-74
2021/01/07 04:23:28;;;;;;;58.38;33.08;;;;;;;35.78;41.62;100946.88;5071859;28;66207;-71
2021/01/07 04:25:58;;;;;;;52.55;28.55;;;;;;;39.01;37.80;100948.09;5089041;27;70059;-77
2021/01/07 04:28:28;;;;;;;57.35;29.40;;;;;;;40.98;34.21;100950.59;5054737;28;65787;-78
2021/01/07 04:30:58;;;;;;;41.65;27.73;;;;;;;41.90;32.33;100927.63;5070637;28;68271;-75
2021/01/07 04:33:31;;;;;;;45.20;28.25;;;;;;;40.35;33.35;100949.41;5069621;28;65590;-78
2021/01/07 04:36:01;;;;;;;55.25;31.92;;;;;;;37.48;38.75;100958.47;5053012;28;68727;-58
2021/01/07 04:38:31;;;;;;;45.55;29.58;;;;;;;35.87;42.05;100945.34;5088187;28;65653;-35
2021/01/07 04:41:05;;;;;;;57.80;31.02;;;;;;;35.66;42.93;100943.41;5086672;27;69433;-56
2021/01/07 04:43:38;;;;;;;53.05;32.20;;;;;;;34.66;43.86;100956.75;5086935;27;66111;-70
2021/01/07 04:46:29;;;;;;;32.00;24.48;;;;;;;34.08;46.23;100934.09;5088233;27;70104;-63
2021/01/07 04:49:04;;;;;;;40.85;26.27;;;;;;;34.44;48.40;100934.81;5086242;28;65494;-67
2021/01/07 04:51:35;;;;;;;60.90;33.83;;;;;;;34.08;48.52;100922.38;5091146;27;69999;-84
2021/01/07 04:54:09;;;;;;;61.58;35.22;;;;;;;34.95;42.65;100916.66;5069920;28;64692;-64
2021/01/07 04:56:55;;;;;;;70.10;37.63;;;;;;;35.67;41.01;100901.41;5086740;27;71153;-71
2021/01/07 04:59:43;;;;;;;48.28;30.00;;;;;;;34.92;41.01;100889.91;5086900;27;66196;-80
2021/01/07 05:02:27;;;;;;;63.72;36.70;;;;;;;35.47;43.97;100894.56;5079223;27;68992;-96
2021/01/07 05:05:00;;;;;;;49.15;28.50;;;;;;;35.81;37.74;100842.66;5054289;28;65509;-79
2021/01/07 05:07:31;;;;;;;31.20;20.67;;;;;;;35.56;34.57;100879.44;5081901;28;69706;-51
2021/01/07 05:10:11;;;;;;;17.67;15.90;;;;;;;34.42;28.82;100868.84;5086719;28;66383;-50
2021/01/07 05:12:48;;;;;;;14.43;12.73;;;;;;;33.08;28.42;100875.25;5086665;27;69369;-51
2021/01/07 05:15:18;;;;;;;10.65;9.77;;;;;;;32.21;28.53;100883.84;5086180;27;66385;-64
2021/01/07 05:17:52;;;;;;;30.90;18.15;;;;;;;32.22;38.98;100856.47;5073282;28;68446;-96
2021/01/07 05:20:23;;;;;;;29.63;18.98;;;;;;;32.38;40.69;100854.97;5060725;28;65452;-83
2021/01/07 05:22:59;;;;;;;17.65;15.85;;;;;;;32.64;41.29;100842.09;5035679;28;69759;-83
2021/01/07 05:25:30;;;;;;;21.52;15.48;;;;;;;33.05;41.40;100864.84;5054195;27;65033;-89
2021/01/07 05:28:05;;;;;;;15.40;13.85;;;;;;;33.19;41.29;100836.38;5056478;28;68836;-86
2021/01/07 06:29:32;;;;;;;32.30;18.00;;;;;;;34.40;47.31;100729.38;5123549;27;44469;-59
2021/01/07 06:32:08;;;;;;;33.40;18.23;;;;;;;34.35;47.34;100718.41;5119738;27;70691;-78
2021/01/07 06:34:41;;;;;;;32.92;17.75;;;;;;;34.48;46.96;100715.34;5121418;27;66332;-62
2021/01/07 06:37:12;;;;;;;34.13;17.23;;;;;;;34.50;46.95;100706.94;5125671;27;70563;-85
2021/01/07 06:39:49;;;;;;;50.60;26.10;;;;;;;34.80;48.31;100679.31;5125184;27;66066;-84
2021/01/07 06:42:38;;;;;;;69.90;32.83;;;;;;;35.45;47.35;100703.06;5094977;27;69165;-81
2021/01/07 06:45:13;;;;;;;60.92;32.25;;;;;;;35.77;45.90;100688.66;5075412;27;65484;-82
2021/01/07 06:47:47;;;;;;;64.80;32.65;;;;;;;35.94;45.83;100662.09;5075958;27;70821;-83
2021/01/07 06:50:17;;;;;;;56.28;28.48;;;;;;;35.95;44.63;100611.88;5091138;27;64525;-81
2021/01/07 06:52:52;;;;;;;48.55;29.83;;;;;;;36.21;77.21;100694.00;5088714;27;68778;-55
2021/01/07 07:08:34;;;;;;;35.50;21.25;;;;;;;35.79;42.79;100686.50;5225403;22;43589;-69
2021/01/07 07:11:09;;;;;;;44.17;23.63;;;;;;;35.91;42.28;100673.53;4997827;28;70541;-74
2021/01/07 07:13:43;;;;;;;47.10;28.58;;;;;;;35.80;42.51;100674.50;5000002;28;66455;-66
2021/01/07 07:16:15;;;;;;;47.10;24.65;;;;;;;35.96;49.21;100687.19;5002314;28;70059;-67
2021/01/07 07:18:55;;;;;;;56.45;29.23;;;;;;;36.26;51.98;100685.03;4982739;28;65510;-66
2021/01/07 07:21:26;;;;;;;92.85;59.35;;;;;;;35.95;45.68;100673.84;4980360;28;69265;-60
2021/01/07 07:24:09;;;;;;;54.83;39.78;;;;;;;36.18;42.00;100662.56;4965445;28;64535;-73
2021/01/07 07:26:42;;;;;;;72.93;52.92;;;;;;;36.44;41.73;100651.81;4982997;28;69744;-75
2021/01/07 07:29:15;;;;;;;64.32;37.67;;;;;;;36.44;41.50;100658.13;4978328;28;65244;-80
2021/01/07 07:31:48;;;;;;;49.00;32.20;;;;;;;36.68;39.97;100633.94;4961534;28;69137;-83
2021/01/07 07:34:47;;;;;;;40.38;25.65;;;;;;;36.39;40.30;100581.59;4957700;28;65605;-84
2021/01/07 07:37:31;;;;;;;48.03;30.60;;;;;;;36.99;39.77;100660.59;4945895;28;70468;-88
2021/01/07 07:40:35;;;;;;;38.13;19.20;;;;;;;36.11;41.16;100677.50;4949002;28;64739;-76
2021/01/07 07:43:10;;;;;;;54.13;21.48;;;;;;;35.07;44.25;100658.44;4939091;28;69456;-71
2021/01/07 07:45:44;;;;;;;66.95;21.90;;;;;;;35.29;44.05;100672.06;4968803;28;65620;-68
2021/01/07 07:48:17;;;;;;;78.35;22.95;;;;;;;35.24;45.18;100658.34;4965771;28;70198;-70
2021/01/07 07:51:08;;;;;;;64.15;23.45;;;;;;;35.47;44.73;100662.72;4966565;28;66398;-66
2021/01/07 07:53:42;;;;;;;44.90;20.67;;;;;;;35.30;43.87;100664.69;4968911;28;69981;-67
2021/01/07 07:56:22;;;;;;;109.47;41.47;;;;;;;34.99;47.48;100645.22;4968957;28;65384;-64
2021/01/07 07:59:05;;;;;;;270.60;62.78;;;;;;;35.08;50.45;100654.66;4967138;28;70550;-73
2021/01/07 08:01:46;;;;;;;112.75;38.95;;;;;;;35.33;46.99;100669.66;4969575;28;66358;-66
2021/01/07 08:04:26;;;;;;;112.82;38.90;;;;;;;35.54;46.07;100666.03;4968022;28;69351;-64
2021/01/07 08:06:57;;;;;;;186.98;56.05;;;;;;;35.56;46.45;100638.56;4969341;28;66131;-75
2021/01/07 08:09:28;;;;;;;183.93;66.07;;;;;;;35.68;46.67;100641.09;4956057;28;69093;-79
2021/01/07 08:12:01;;;;;;;177.07;72.60;;;;;;;35.82;47.49;100664.16;4968800;28;65476;-65
2021/01/07 08:14:32;;;;;;;;;;;;;;;34.82;46.36;100660.81;4973638;28;69411;-86
2021/01/07 08:17:42;;;;;;;;;;;;;;;;;;;;;
2021/01/07 08:21:12;;;;;;;70.57;30.98;;;;;;;34.47;67.09;100664.69;5128758;23;42656;-54
2021/01/07 08:23:44;;;;;;;143.48;59.13;;;;;;;34.11;48.59;100647.78;5030595;28;66425;-75
2021/01/07 08:26:27;;;;;;;;;;;;;;;33.33;51.55;100677.38;5019806;28;68763;-88
2021/01/07 08:28:58;;;;;;;148.27;64.90;;;;;;;33.48;50.52;100671.38;5010664;28;65643;-65
2021/01/07 08:31:33;;;;;;;145.88;60.83;;;;;;;33.63;52.38;100662.75;5029017;28;69404;-67
2021/01/07 08:34:08;;;;;;;113.65;46.05;;;;;;;33.79;50.91;100670.09;5027183;28;66151;-60
2021/01/07 08:36:41;;;;;;;165.13;67.05;;;;;;;33.84;50.93;100665.81;5024813;28;70303;-87
2021/01/07 08:39:18;;;;;;;167.35;72.53;;;;;;;33.69;49.68;100669.91;4997402;28;65835;-73
